Time;durP1;ratioP1;P1;durP2;ratioP2;P2;SDS_P1;SDS_P2;PMS_P1;PMS_P2;Temp;Humidity;BMP_temperature;BMP_pressure;BME280_temperature;BME280_humidity;BME280_pressure;Samples;Min_cycle;Max_cycle;Signal;HPM_P1;HPM_P2
2023/10/08 00:01:11;;;;;;;;;;;15.20;99.90;;;;;;5137173;27;20058;-44
2023/10/08 00:03:37;;;;;;;;;;;15.10;99.90;;;;;;5118058;27;19918;-48
2023/10/08 00:06:06;;;;;;;;;;;15.10;99.90;;;;;;5116495;28;19917;-45
2023/10/08 00:08:35;;;;;;;;;;;15.10;99.90;;;;;;5116308;28;19950;-48
2023/10/08 00:11:07;;;;;;;;;;;15.10;99.90;;;;;;5116234;28;19914;-45
2023/10/08 00:13:43;;;;;;;;;;;15.10;99.90;;;;;;5116225;28;19915;-44
2023/10/08 00:16:15;;;;;;;;;;;15.10;99.90;;;;;;5116126;28;19908;-46
2023/10/08 00:18:42;;;;;;;;;;;15.10;99.90;;;;;;5116039;28;19916;-45
2023/10/08 00:23:41;;;;;;;;;;;15.00;99.90;;;;;;5136512;27;19908;-45
2023/10/08 00:26:10;;;;;;;;;;;15.00;99.90;;;;;;5136638;27;19914;-46
2023/10/08 00:28:35;;;;;;;;;;;15.00;99.90;;;;;;5135920;27;19915;-45
2023/10/08 00:31:11;;;;;;;;;;;14.90;99.90;;;;;;5115948;28;19908;-46
2023/10/08 00:33:36;;;;;;;;;;;14.90;99.90;;;;;;5115792;28;20007;-43
2023/10/08 00:36:17;;;;;;;;;;;14.90;99.90;;;;;;5115473;28;20018;-45
2023/10/08 00:38:58;;;;;;;;;;;14.90;99.90;;;;;;5114716;28;20255;-45
2023/10/08 00:41:28;;;;;;;;;;;14.90;99.90;;;;;;5127275;27;19923;-47
2023/10/08 00:43:55;;;;;;;;;;;14.90;99.90;;;;;;5135807;27;19923;-45
2023/10/08 00:46:24;;;;;;;;;;;14.90;99.90;;;;;;5136112;27;20016;-44
2023/10/08 00:48:54;;;;;;;;;;;14.90;99.90;;;;;;5136046;27;19914;-46
2023/10/08 00:53:59;;;;;;;;;;;14.80;99.90;;;;;;5136017;27;19907;-45
2023/10/08 00:56:26;;;;;;;;;;;14.80;99.90;;;;;;5136019;27;19912;-46
2023/10/08 00:58:53;;;;;;;;;;;14.80;99.90;;;;;;5135730;27;20350;-47
2023/10/08 01:01:22;;;;;;;;;;;14.80;99.90;;;;;;5135926;27;19953;-46
2023/10/08 01:03:49;;;;;;;;;;;14.80;99.90;;;;;;5135699;27;19907;-44
2023/10/08 01:06:18;;;;;;;;;;;14.70;99.90;;;;;;5135924;27;19915;-46
2023/10/08 01:08:52;;;;;;;;;;;14.70;99.90;;;;;;5135675;27;19907;-45
2023/10/08 01:12:08;;;;;;;;;;;14.70;99.90;;;;;;5125800;27;20011;-44
2023/10/08 01:14:12;;;;;;;;;;;14.70;99.90;;;;;;5103637;28;19915;-43
2023/10/08 01:16:39;;;;;;;;;;;14.70;99.90;;;;;;5114983;28;19999;-47
2023/10/08 01:19:12;;;;;;;;;;;14.70;99.90;;;;;;5114931;28;20385;-47
2023/10/08 01:21:39;;;;;;;;;;;14.70;99.90;;;;;;5114871;28;19908;-45
2023/10/08 01:24:07;;;;;;;;;;;14.70;99.90;;;;;;5114935;28;19953;-45
2023/10/08 01:26:39;;;;;;;;;;;14.70;99.90;;;;;;5114803;28;19982;-45
2023/10/08 01:29:09;;;;;;;;;;;14.60;99.90;;;;;;5115152;28;19930;-44
2023/10/08 01:31:36;;;;;;;;;;;14.70;99.90;;;;;;5114785;28;19915;-43
2023/10/08 01:34:04;;;;;;;;;;;14.60;99.90;;;;;;5114492;28;20282;-46
2023/10/08 01:36:31;;;;;;;;;;;14.60;99.90;;;;;;5114045;28;20069;-44
2023/10/08 01:38:57;;;;;;;;;;;14.60;99.90;;;;;;5114505;28;19925;-44
2023/10/08 01:41:29;;;;;;;;;;;14.60;99.90;;;;;;5114448;28;20289;-44
2023/10/08 01:43:55;;;;;;;;;;;14.60;99.90;;;;;;5114228;27;20366;-43
2023/10/08 01:46:21;;;;;;;;;;;14.60;99.90;;;;;;5114472;28;19953;-45
2023/10/08 01:48:49;;;;;;;;;;;14.60;99.90;;;;;;5114200;28;19931;-45
2023/10/08 01:51:24;;;;;;;;;;;14.60;99.90;;;;;;5114377;27;19930;-43
2023/10/08 01:53:54;;;;;;;;;;;14.60;99.90;;;;;;5114313;28;19908;-48
2023/10/08 01:56:19;;;;;;;;;;;14.50;99.90;;;;;;5114331;28;19908;-44
2023/10/08 01:58:46;;;;;;;;;;;14.60;99.90;;;;;;5114095;28;19941;-44
2023/10/08 02:01:13;;;;;;;;;;;14.60;99.90;;;;;;5114138;28;19914;-45
2023/10/08 02:03:38;;;;;;;;;;;14.60;99.90;;;;;;5114022;28;19908;-46
2023/10/08 02:06:06;;;;;;;;;;;14.60;99.90;;;;;;5114091;28;19914;-48
2023/10/08 02:08:31;;;;;;;;;;;14.60;99.90;;;;;;5114041;28;19974;-44
2023/10/08 02:10:57;;;;;;;;;;;14.50;99.90;;;;;;5119108;27;19911;-46
2023/10/08 02:13:22;;;;;;;;;;;14.60;99.90;;;;;;5134556;27;19908;-44
2023/10/08 02:15:54;;;;;;;;;;;14.50;99.90;;;;;;5134254;27;19913;-46
2023/10/08 02:18:19;;;;;;;;;;;14.50;99.90;;;;;;5134315;27;19919;-44
2023/10/08 02:20:45;;;;;;;;;;;14.50;99.90;;;;;;5134222;27;19915;-45
2023/10/08 02:23:11;;;;;;;;;;;14.50;99.90;;;;;;5134443;27;19907;-45
2023/10/08 02:25:41;;;;;;;;;;;14.50;99.90;;;;;;5134232;27;19990;-43
2023/10/08 02:28:09;;;;;;;;;;;14.50;99.90;;;;;;5134287;27;19907;-46
2023/10/08 02:30:36;;;;;;;;;;;14.50;99.90;;;;;;5134152;27;19930;-44
2023/10/08 02:33:02;;;;;;;;;;;14.50;99.90;;;;;;5134292;27;19907;-43
2023/10/08 02:35:27;;;;;;;;;;;14.50;99.90;;;;;;5133768;27;19926;-43
2023/10/08 02:37:54;;;;;;;;;;;14.50;99.90;;;;;;5134040;27;20014;-45
2023/10/08 02:40:26;;;;;;;;;;;14.50;99.90;;;;;;5134040;27;19907;-46
2023/10/08 02:42:52;;;;;;;;;;;14.50;99.90;;;;;;5113450;28;19915;-44
2023/10/08 02:45:18;;;;;;;;;;;14.50;99.90;;;;;;5113379;28;20265;-43
2023/10/08 02:47:46;;;;;;;;;;;14.40;99.90;;;;;;5113357;28;19915;-42
2023/10/08 02:50:16;;;;;;;;;;;14.40;99.90;;;;;;5113415;28;19912;-46
2023/10/08 02:52:44;;;;;;;;;;;14.40;99.90;;;;;;5113253;28;19908;-46
2023/10/08 02:55:22;;;;;;;;;;;14.40;99.90;;;;;;5113450;28;19992;-45
2023/10/08 02:57:50;;;;;;;;;;;14.40;99.90;;;;;;5113088;28;19920;-46
2023/10/08 03:00:19;;;;;;;;;;;14.40;99.90;;;;;;5113165;28;19908;-43
2023/10/08 03:02:46;;;;;;;;;;;14.40;99.90;;;;;;5112854;28;19941;-43
2023/10/08 03:05:13;;;;;;;;;;;14.40;99.90;;;;;;5113336;28;19977;-44
2023/10/08 03:07:39;;;;;;;;;;;14.40;99.90;;;;;;5113170;28;19930;-45
2023/10/08 03:10:06;;;;;;;;;;;14.40;99.90;;;;;;5113072;28;19908;-45
2023/10/08 03:12:32;;;;;;;;;;;14.40;99.90;;;;;;5130444;28;19908;-44
2023/10/08 03:15:12;;;;;;;;;;;14.40;99.90;;;;;;5133657;28;20362;-43
2023/10/08 03:17:48;;;;;;;;;;;14.40;99.90;;;;;;5133597;28;19955;-45
2023/10/08 03:20:38;;;;;;;;;;;14.40;99.90;;;;;;5133912;28;19907;-44
2023/10/08 03:25:56;;;;;;;;;;;14.30;99.90;;;;;;5134114;28;19915;-42
2023/10/08 03:28:24;;;;;;;;;;;14.30;99.90;;;;;;5133702;28;19907;-43
2023/10/08 03:31:02;;;;;;;;;;;14.30;99.90;;;;;;5133446;28;20001;-46
2023/10/08 03:33:28;;;;;;;;;;;14.30;99.90;;;;;;5133669;28;19979;-44
2023/10/08 03:35:55;;;;;;;;;;;14.30;99.90;;;;;;5133190;28;20401;-43
2023/10/08 03:41:06;;;;;;;;;;;14.30;99.90;;;;;;5133404;28;19918;-45
2023/10/08 03:43:42;;;;;;;;;;;14.30;99.90;;;;;;5133315;28;19908;-43
2023/10/08 03:46:14;;;;;;;;;;;14.30;99.90;;;;;;5133403;28;19929;-43
2023/10/08 03:48:44;;;;;;;;;;;14.30;99.90;;;;;;5133306;28;19907;-45
2023/10/08 03:51:11;;;;;;;;;;;14.30;99.90;;;;;;5133335;28;19908;-47
2023/10/08 03:53:42;;;;;;;;;;;14.30;99.90;;;;;;5133242;28;19908;-43
2023/10/08 03:56:08;;;;;;;;;;;14.20;99.90;;;;;;5133248;28;19990;-43
2023/10/08 03:58:40;;;;;;;;;;;14.20;99.90;;;;;;5133096;28;20385;-44
2023/10/08 04:01:10;;;;;;;;;;;14.30;99.90;;;;;;5133334;28;19908;-43
2023/10/08 04:06:21;;;;;;;;;;;14.30;99.90;;;;;;5133167;28;20415;-44
2023/10/08 04:09:00;;;;;;;;;;;14.30;99.90;;;;;;5133144;28;19908;-44
2023/10/08 04:11:32;;;;;;;;;;;14.30;99.90;;;;;;5125340;28;19912;-43
2023/10/08 04:14:01;;;;;;;;;;;14.30;99.90;;;;;;5114657;28;19912;-44
2023/10/08 04:16:27;;;;;;;;;;;14.30;99.90;;;;;;5116184;28;19908;-43
2023/10/08 04:18:55;;;;;;;;;;;14.20;99.90;;;;;;5115828;28;19919;-46
2023/10/08 04:21:22;;;;;;;;;;;14.30;99.90;;;;;;5136372;27;19907;-44
2023/10/08 04:23:51;;;;;;;;;;;14.20;99.90;;;;;;5136458;27;19912;-44
2023/10/08 04:26:17;;;;;;;;;;;14.20;99.90;;;;;;5136658;27;19907;-45
2023/10/08 04:28:43;;;;;;;;;;;14.20;99.90;;;;;;5136431;27;19908;-46
2023/10/08 04:31:14;;;;;;;;;;;14.20;99.90;;;;;;5136281;27;19995;-44
2023/10/08 04:33:44;;;;;;;;;;;14.20;99.90;;;;;;5118359;27;19918;-43
2023/10/08 04:36:10;;;;;;;;;;;14.20;99.90;;;;;;5115484;28;20365;-44
2023/10/08 04:38:40;;;;;;;;;;;14.20;99.90;;;;;;5115639;28;19966;-45
2023/10/08 04:41:09;;;;;;;;;;;14.20;99.90;;;;;;5115555;27;20026;-43
2023/10/08 04:43:37;;;;;;;;;;;14.20;99.90;;;;;;5115589;28;19911;-43
2023/10/08 04:46:19;;;;;;;;;;;14.20;99.90;;;;;;5115507;28;20384;-45
2023/10/08 04:48:45;;;;;;;;;;;14.20;99.90;;;;;;5115541;28;19916;-43
2023/10/08 04:51:12;;;;;;;;;;;14.20;99.90;;;;;;5115536;28;20294;-44
2023/10/08 04:53:40;;;;;;;;;;;14.20;99.90;;;;;;5114686;27;20362;-44
2023/10/08 04:56:13;;;;;;;;;;;14.20;99.90;;;;;;5125615;27;19943;-42
2023/10/08 04:58:40;;;;;;;;;;;14.20;99.90;;;;;;5126761;27;20416;-44
2023/10/08 05:01:27;;;;;;;;;;;14.20;99.90;;;;;;5118591;27;19962;-44
2023/10/08 05:17:09;;;;;;;;;;;14.10;99.90;;;;;;5119260;27;19915;-45
2023/10/08 05:30:25;;;;;;;;;;;14.10;99.90;;;;;;5125570;27;19964;-44
2023/10/08 05:38:13;;;;;;;;;;;14.10;99.90;;;;;;5130501;27;19991;-43
2023/10/08 05:49:15;;;;;;;;;;;14.00;99.90;;;;;;5124135;27;19950;-43
2023/10/08 06:03:09;;;;;;;;;;;14.10;99.90;;;;;;5123072;27;19947;-46
2023/10/08 06:13:09;;;;;;;;;;;14.10;99.90;;;;;;5124785;27;19922;-45
2023/10/08 06:15:48;;;;;;;;;;;14.10;99.90;;;;;;5121770;27;20357;-46
2023/10/08 06:18:26;;;;;;;;;;;14.10;99.90;;;;;;5116810;27;19919;-44
2023/10/08 06:20:55;;;;;;;;;;;14.10;99.90;;;;;;5117085;27;19922;-44
2023/10/08 06:23:23;;;;;;;;;;;14.10;99.90;;;;;;5115512;27;19923;-44
2023/10/08 06:25:54;;;;;;;;;;;14.10;99.90;;;;;;5122557;27;19918;-45
2023/10/08 06:28:20;;;;;;;;;;;14.10;99.90;;;;;;5118129;27;19990;-45
2023/10/08 06:30:46;;;;;;;;;;;14.10;99.90;;;;;;5120921;27;19911;-44
2023/10/08 06:33:11;;;;;;;;;;;14.10;99.90;;;;;;5123541;27;19964;-44
2023/10/08 06:35:36;;;;;;;;;;;14.10;99.90;;;;;;5117039;28;19926;-44
2023/10/08 06:38:09;;;;;;;;;;;14.10;99.90;;;;;;5129380;27;20327;-44
2023/10/08 06:43:24;;;;;;;;;;;14.10;99.90;;;;;;5113477;28;19921;-44
2023/10/08 06:45:52;;;;;;;;;;;14.20;99.90;;;;;;5117962;27;19912;-43
2023/10/08 06:48:20;;;;;;;;;;;14.20;99.90;;;;;;5120448;27;19916;-45
2023/10/08 06:50:46;;;;;;;;;;;14.20;99.90;;;;;;5126451;27;20274;-44
2023/10/08 06:53:13;;;;;;;;;;;14.30;99.90;;;;;;5133869;27;19908;-44
2023/10/08 06:55:43;;;;;;;;;;;14.30;99.90;;;;;;5129924;27;20036;-43
2023/10/08 06:58:08;;;;;;;;;;;14.30;99.90;;;;;;5126875;27;20389;-46
2023/10/08 07:00:46;;;;;;;;;;;14.40;99.90;;;;;;5126885;28;20133;-46
2023/10/08 07:03:14;;;;;;;;;;;14.40;99.90;;;;;;5133613;28;19908;-46
2023/10/08 07:05:53;;;;;;;;;;;14.40;99.90;;;;;;5133591;28;19907;-45
2023/10/08 07:08:23;;;;;;;;;;;14.50;99.90;;;;;;5133791;28;19907;-43
2023/10/08 07:10:49;;;;;;;;;;;14.50;99.90;;;;;;5132518;28;19907;-45
2023/10/08 07:13:17;;;;;;;;;;;14.50;99.90;;;;;;5133727;28;19911;-44
2023/10/08 07:15:45;;;;;;;;;;;14.60;99.90;;;;;;5133634;28;19907;-44
2023/10/08 07:18:13;;;;;;;;;;;14.50;99.90;;;;;;5133640;28;19920;-44
2023/10/08 07:20:45;;;;;;;;;;;14.60;99.90;;;;;;5133550;28;19952;-46
2023/10/08 07:23:20;;;;;;;;;;;14.50;99.90;;;;;;5133692;28;19908;-45
2023/10/08 07:25:51;;;;;;;;;;;14.60;99.90;;;;;;5133548;28;19907;-47
2023/10/08 07:28:20;;;;;;;;;;;14.60;99.90;;;;;;5133477;28;20349;-44
2023/10/08 07:30:45;;;;;;;;;;;14.60;99.90;;;;;;5133443;28;20358;-45
2023/10/08 07:33:17;;;;;;;;;;;14.60;99.90;;;;;;5133709;28;19907;-45
2023/10/08 07:36:04;;;;;;;;;;;14.70;99.90;;;;;;5133226;28;19927;-44
2023/10/08 07:38:30;;;;;;;;;;;14.70;99.90;;;;;;5133468;28;19968;-43
2023/10/08 07:40:55;;;;;;;;;;;14.80;99.90;;;;;;5133321;28;19915;-46
2023/10/08 07:43:21;;;;;;;;;;;14.80;99.90;;;;;;5133476;28;19907;-45
2023/10/08 07:45:46;;;;;;;;;;;14.80;99.90;;;;;;5133255;28;19908;-47
2023/10/08 07:48:13;;;;;;;;;;;14.90;99.90;;;;;;5135981;27;19954;-43
2023/10/08 07:50:46;;;;;;;;;;;14.80;99.90;;;;;;5137308;27;19914;-45
2023/10/08 07:53:17;;;;;;;;;;;14.90;99.90;;;;;;5137224;27;19907;-45
2023/10/08 07:55:47;;;;;;;;;;;14.90;99.90;;;;;;5137266;27;19947;-48
2023/10/08 07:58:14;;;;;;;;;;;14.90;99.90;;;;;;5137191;27;19916;-46
2023/10/08 08:00:40;;;;;;;;;;;14.90;99.90;;;;;;5137067;27;19942;-45
2023/10/08 08:03:06;;;;;;;;;;;15.00;99.90;;;;;;5137152;27;19914;-49
2023/10/08 08:05:32;;;;;;;;;;;15.00;99.90;;;;;;5137093;27;20002;-46
2023/10/08 08:08:05;;;;;;;;;;;15.10;99.90;;;;;;5136811;27;19911;-47
2023/10/08 08:10:36;;;;;;;;;;;15.00;99.90;;;;;;5137081;27;19907;-44
2023/10/08 08:13:01;;;;;;;;;;;15.10;99.90;;;;;;5136991;27;19914;-44
2023/10/08 08:15:29;;;;;;;;;;;15.00;99.90;;;;;;5136857;27;19911;-43
2023/10/08 08:17:54;;;;;;;;;;;15.10;99.90;;;;;;5136688;27;19915;-45
2023/10/08 08:20:34;;;;;;;;;;;15.10;99.90;;;;;;5136715;27;19914;-46
2023/10/08 08:23:06;;;;;;;;;;;15.10;99.90;;;;;;5136712;27;19998;-44
2023/10/08 08:26:05;;;;;;;;;;;15.00;99.90;;;;;;5136955;27;19907;-45
2023/10/08 08:28:31;;;;;;;;;;;15.00;99.90;;;;;;5136696;27;19911;-43
2023/10/08 08:31:04;;;;;;;;;;;15.00;99.90;;;;;;5136442;27;19930;-45
2023/10/08 08:33:52;;;;;;;;;;;14.90;99.90;;;;;;5136597;27;20081;-43
2023/10/08 08:36:16;;;;;;;;;;;14.90;99.90;;;;;;5136039;27;19934;-43
2023/10/08 08:38:42;;;;;;;;;;;14.80;99.90;;;;;;5136274;27;19915;-44
2023/10/08 08:41:12;;;;;;;;;;;14.80;99.90;;;;;;5136287;27;20403;-47
2023/10/08 08:43:43;;;;;;;;;;;14.80;99.90;;;;;;5136288;27;19911;-46
2023/10/08 08:46:12;;;;;;;;;;;14.80;99.90;;;;;;5136394;27;19908;-46
2023/10/08 08:48:41;;;;;;;;;;;14.80;99.90;;;;;;5136151;27;20262;-45
2023/10/08 08:51:06;;;;;;;;;;;14.90;99.90;;;;;;5136261;27;19914;-44
2023/10/08 08:53:32;;;;;;;;;;;15.00;99.90;;;;;;5136102;27;20348;-46
2023/10/08 08:56:00;;;;;;;;;;;15.00;99.90;;;;;;5136050;27;19911;-44
2023/10/08 08:58:25;;;;;;;;;;;15.00;99.90;;;;;;5135482;27;19949;-46
2023/10/08 09:00:52;;;;;;;;;;;15.10;99.90;;;;;;5135593;27;20085;-44
2023/10/08 09:03:19;;;;;;;;;;;15.10;99.90;;;;;;5135984;27;20013;-46
2023/10/08 09:05:49;;;;;;;;;;;15.10;99.90;;;;;;5135793;27;19959;-47
2023/10/08 09:08:18;;;;;;;;;;;15.20;99.90;;;;;;5135815;27;19912;-45
2023/10/08 09:10:53;;;;;;;;;;;15.20;99.90;;;;;;5135783;27;19914;-46
2023/10/08 09:13:20;;;;;;;;;;;15.30;99.90;;;;;;5135674;27;19908;-43
2023/10/08 09:15:46;;;;;;;;;;;15.30;99.90;;;;;;5135585;27;20033;-46
2023/10/08 09:18:14;;;;;;;;;;;15.40;99.90;;;;;;5135619;27;20006;-44
2023/10/08 09:20:43;;;;;;;;;;;15.40;99.90;;;;;;5135445;27;19998;-46
2023/10/08 09:23:13;;;;;;;;;;;15.50;99.90;;;;;;5135635;27;20385;-45
2023/10/08 09:25:40;;;;;;;;;;;15.60;99.90;;;;;;5135437;27;19911;-45
2023/10/08 09:28:08;;;;;;;;;;;15.60;99.90;;;;;;5135450;27;19912;-46
2023/10/08 09:30:37;;;;;;;;;;;15.60;99.90;;;;;;5135315;27;20358;-45
2023/10/08 09:33:07;;;;;;;;;;;15.60;99.90;;;;;;5135359;27;19930;-44
2023/10/08 09:35:33;;;;;;;;;;;15.60;99.90;;;;;;5134806;27;19972;-45
2023/10/08 09:38:00;;;;;;;;;;;15.60;99.90;;;;;;5135199;27;19919;-48
2023/10/08 09:40:25;;;;;;;;;;;15.70;99.90;;;;;;5135105;27;19994;-46
2023/10/08 09:42:51;;;;;;;;;;;15.80;99.90;;;;;;5135093;27;20006;-46
2023/10/08 09:45:17;;;;;;;;;;;15.90;99.90;;;;;;5135069;27;19907;-44
2023/10/08 09:47:44;;;;;;;;;;;15.90;99.90;;;;;;5135177;27;19907;-45
2023/10/08 09:50:12;;;;;;;;;;;16.00;99.90;;;;;;5134851;27;19958;-46
2023/10/08 09:52:58;;;;;;;;;;;16.00;99.90;;;;;;5134805;27;20429;-46
2023/10/08 09:55:24;;;;;;;;;;;16.00;99.90;;;;;;5134964;27;19908;-45
2023/10/08 09:57:55;;;;;;;;;;;16.00;99.90;;;;;;5134660;27;19911;-46
2023/10/08 10:00:30;;;;;;;;;;;16.20;99.90;;;;;;5134744;27;19994;-45
2023/10/08 10:03:01;;;;;;;;;;;16.30;99.90;;;;;;5134702;27;20357;-47
2023/10/08 10:05:31;;;;;;;;;;;16.40;99.90;;;;;;5134614;27;19915;-44
2023/10/08 10:07:57;;;;;;;;;;;16.40;99.90;;;;;;5134636;27;19931;-44
2023/10/08 10:10:26;;;;;;;;;;;16.40;99.90;;;;;;5134547;27;20380;-45
2023/10/08 10:12:51;;;;;;;;;;;16.50;99.90;;;;;;5134498;27;19915;-45
2023/10/08 10:15:19;;;;;;;;;;;16.60;99.90;;;;;;5134553;27;20002;-45
2023/10/08 10:17:47;;;;;;;;;;;16.50;99.90;;;;;;5134338;27;20033;-45
2023/10/08 10:20:13;;;;;;;;;;;16.60;99.90;;;;;;5134490;27;19908;-44
2023/10/08 10:22:39;;;;;;;;;;;16.60;99.90;;;;;;5134323;27;20028;-48
2023/10/08 10:25:14;;;;;;;;;;;16.80;99.90;;;;;;5115967;27;19939;-47
2023/10/08 10:28:00;;;;;;;;;;;16.80;99.90;;;;;;5134275;27;19941;-45
2023/10/08 10:30:27;;;;;;;;;;;16.90;99.90;;;;;;5116363;27;19988;-45
2023/10/08 10:32:53;;;;;;;;;;;16.90;99.90;;;;;;5134178;27;19976;-46
2023/10/08 10:35:19;;;;;;;;;;;17.00;99.90;;;;;;5133848;27;19964;-44
2023/10/08 10:37:51;;;;;;;;;;;17.10;99.90;;;;;;5133960;27;19915;-45
2023/10/08 10:40:28;;;;;;;;;;;17.20;99.90;;;;;;5134116;27;19958;-45
2023/10/08 10:42:56;;;;;;;;;;;17.20;99.90;;;;;;5133289;27;20138;-46
2023/10/08 10:45:40;;;;;;;;;;;17.20;99.90;;;;;;5134074;27;19976;-46
2023/10/08 10:48:21;;;;;;;;;;;17.10;99.90;;;;;;5134231;27;19976;-45
2023/10/08 10:50:48;;;;;;;;;;;17.20;99.90;;;;;;5133958;27;19907;-44
2023/10/08 10:53:17;;;;;;;;;;;17.30;99.90;;;;;;5134020;27;19912;-49
2023/10/08 10:55:58;;;;;;;;;;;17.60;99.90;;;;;;5133752;27;19942;-44
2023/10/08 10:58:24;;;;;;;;;;;17.80;99.90;;;;;;5133906;27;19916;-47
2023/10/08 11:00:57;;;;;;;;;;;18.00;99.90;;;;;;5133749;27;19912;-46
2023/10/08 11:03:23;;;;;;;;;;;18.10;99.90;;;;;;5133974;28;19908;-46
2023/10/08 11:05:51;;;;;;;;;;;18.20;99.90;;;;;;5133706;28;19914;-45
2023/10/08 11:08:18;;;;;;;;;;;18.10;99.90;;;;;;5133825;28;20366;-47
2023/10/08 11:10:50;;;;;;;;;;;18.20;99.90;;;;;;5133621;28;20389;-45
2023/10/08 11:13:16;;;;;;;;;;;18.20;99.90;;;;;;5133989;28;19919;-48
2023/10/08 11:15:42;;;;;;;;;;;18.20;99.90;;;;;;5133573;28;19913;-44
2023/10/08 11:18:11;;;;;;;;;;;18.20;99.90;;;;;;5133519;28;19998;-47
2023/10/08 11:20:39;;;;;;;;;;;18.20;99.90;;;;;;5133626;28;20250;-43
2023/10/08 11:23:17;;;;;;;;;;;18.30;99.90;;;;;;5136260;27;19914;-45
2023/10/08 11:25:59;;;;;;;;;;;18.40;99.90;;;;;;5137800;27;20370;-44
2023/10/08 11:28:27;;;;;;;;;;;18.60;99.90;;;;;;5137842;27;19916;-45
2023/10/08 11:30:53;;;;;;;;;;;18.70;99.90;;;;;;5137632;27;19912;-44
2023/10/08 11:33:19;;;;;;;;;;;18.60;99.90;;;;;;5137810;27;19915;-45
2023/10/08 11:35:58;;;;;;;;;;;18.60;99.90;;;;;;5137394;27;19924;-43
2023/10/08 11:38:24;;;;;;;;;;;18.70;99.90;;;;;;5137403;27;20429;-45
2023/10/08 11:40:51;;;;;;;;;;;18.80;99.90;;;;;;5137482;27;20014;-44
2023/10/08 11:43:17;;;;;;;;;;;18.70;99.90;;;;;;5137557;27;19931;-46
2023/10/08 11:45:48;;;;;;;;;;;18.70;99.90;;;;;;5137353;27;20366;-46
2023/10/08 11:48:13;;;;;;;;;;;18.70;99.90;;;;;;5137565;27;19907;-45
2023/10/08 11:50:40;;;;;;;;;;;18.70;99.90;;;;;;5137261;27;19968;-45
2023/10/08 11:53:05;;;;;;;;;;;18.70;99.90;;;;;;5137249;27;19908;-44
2023/10/08 11:55:35;;;;;;;;;;;18.60;99.90;;;;;;5137328;27;20334;-45
2023/10/08 11:58:09;;;;;;;;;;;18.50;99.90;;;;;;5137192;27;19958;-44
2023/10/08 12:00:45;;;;;;;;;;;18.50;99.90;;;;;;5137170;27;19936;-46
2023/10/08 12:03:17;;;;;;;;;;;18.40;99.90;;;;;;5137135;27;19998;-46
2023/10/08 12:05:47;;;;;;;;;;;18.40;99.90;;;;;;5137049;27;19911;-46
2023/10/08 12:08:16;;;;;;;;;;;18.40;99.90;;;;;;5137091;27;19911;-46
2023/10/08 12:10:43;;;;;;;;;;;18.40;99.90;;;;;;5136853;27;20007;-44
2023/10/08 12:13:10;;;;;;;;;;;18.50;99.90;;;;;;5136986;27;19916;-43
2023/10/08 12:15:38;;;;;;;;;;;18.60;99.90;;;;;;5136770;27;20044;-43
2023/10/08 12:20:59;;;;;;;;;;;18.80;99.90;;;;;;5118610;27;19965;-44
2023/10/08 12:23:24;;;;;;;;;;;18.90;99.90;;;;;;5136721;27;20259;-47
2023/10/08 12:25:55;;;;;;;;;;;18.90;99.90;;;;;;5136639;27;19915;-43
2023/10/08 12:28:24;;;;;;;;;;;18.90;99.90;;;;;;5136596;27;20005;-45
2023/10/08 12:30:52;;;;;;;;;;;18.80;99.90;;;;;;5136477;27;19908;-45
2023/10/08 12:33:19;;;;;;;;;;;18.80;99.90;;;;;;5135784;27;19907;-44
2023/10/08 12:35:45;;;;;;;;;;;18.80;99.90;;;;;;5135677;27;19919;-44
2023/10/08 12:38:12;;;;;;;;;;;18.80;99.90;;;;;;5136506;27;19915;-47
2023/10/08 12:40:47;;;;;;;;;;;18.80;99.90;;;;;;5136317;27;19911;-49
2023/10/08 12:43:13;;;;;;;;;;;18.70;99.90;;;;;;5136500;27;19914;-44
2023/10/08 12:45:39;;;;;;;;;;;18.70;99.90;;;;;;5136270;27;20341;-45
2023/10/08 12:48:05;;;;;;;;;;;18.50;99.90;;;;;;5136269;27;20392;-46
2023/10/08 12:50:42;;;;;;;;;;;18.50;99.90;;;;;;5136224;27;19915;-45
2023/10/08 12:53:11;;;;;;;;;;;18.60;99.90;;;;;;5136164;27;19908;-47
2023/10/08 12:55:42;;;;;;;;;;;18.70;99.90;;;;;;5136297;27;19943;-44
2023/10/08 12:58:11;;;;;;;;;;;18.80;99.90;;;;;;5135885;27;20354;-46
2023/10/08 13:00:42;;;;;;;;;;;18.90;99.90;;;;;;5136030;27;19911;-44
2023/10/08 13:03:15;;;;;;;;;;;19.10;99.90;;;;;;5136001;27;19907;-44
2023/10/08 13:05:47;;;;;;;;;;;19.30;99.90;;;;;;5135810;27;20396;-46
2023/10/08 13:08:13;;;;;;;;;;;19.50;99.90;;;;;;5135983;27;20426;-44
2023/10/08 13:10:43;;;;;;;;;;;19.70;99.90;;;;;;5135780;27;19943;-45
2023/10/08 13:13:10;;;;;;;;;;;19.80;99.90;;;;;;5135740;27;20354;-45
2023/10/08 13:15:36;;;;;;;;;;;20.00;99.90;;;;;;5135758;27;19912;-47
2023/10/08 13:18:03;;;;;;;;;;;20.30;99.90;;;;;;5135647;27;20290;-49
2023/10/08 13:20:33;;;;;;;;;;;20.40;99.90;;;;;;5135512;27;20063;-46
2023/10/08 13:23:01;;;;;;;;;;;20.60;99.90;;;;;;5135560;27;19996;-46
2023/10/08 13:25:27;;;;;;;;;;;20.70;99.90;;;;;;5135531;27;20001;-46
2023/10/08 13:27:52;;;;;;;;;;;20.70;99.90;;;;;;5135449;27;19992;-46
2023/10/08 13:30:18;;;;;;;;;;;20.40;99.90;;;;;;5135435;27;19952;-44
2023/10/08 13:32:43;;;;;;;;;;;20.20;99.90;;;;;;5135303;27;19908;-46
2023/10/08 13:35:11;;;;;;;;;;;19.90;99.90;;;;;;5135054;27;19976;-45
2023/10/08 13:37:36;;;;;;;;;;;19.70;99.90;;;;;;5135250;27;19911;-44
2023/10/08 13:40:02;;;;;;;;;;;19.50;99.90;;;;;;5135084;27;19915;-48
2023/10/08 13:42:29;;;;;;;;;;;19.20;99.90;;;;;;5135261;27;19912;-44
2023/10/08 13:44:57;;;;;;;;;;;19.00;99.90;;;;;;5134791;27;19918;-48
2023/10/08 13:47:25;;;;;;;;;;;18.80;99.90;;;;;;5135063;27;19907;-45
2023/10/08 13:49:52;;;;;;;;;;;18.50;99.90;;;;;;5134999;27;19907;-49
2023/10/08 13:52:20;;;;;;;;;;;18.40;99.90;;;;;;5135027;27;20002;-45
2023/10/08 13:54:51;;;;;;;;;;;18.20;99.90;;;;;;5134888;27;19950;-46
2023/10/08 13:57:20;;;;;;;;;;;18.10;99.90;;;;;;5135062;27;19961;-47
2023/10/08 13:59:46;;;;;;;;;;;18.00;99.90;;;;;;5134712;27;19961;-45
2023/10/08 14:02:15;;;;;;;;;;;17.90;99.90;;;;;;5134811;27;19908;-44
2023/10/08 14:04:44;;;;;;;;;;;17.80;99.90;;;;;;5134667;27;19915;-48
2023/10/08 14:07:16;;;;;;;;;;;17.80;99.90;;;;;;5134760;27;19914;-44
2023/10/08 14:09:50;;;;;;;;;;;17.70;99.90;;;;;;5134635;27;19908;-45
2023/10/08 14:12:16;;;;;;;;;;;17.60;99.90;;;;;;5134659;27;20473;-45
2023/10/08 14:14:46;;;;;;;;;;;17.60;99.90;;;;;;5134408;27;19958;-45
2023/10/08 14:17:39;;;;;;;;;;;17.70;99.90;;;;;;5134632;27;19914;-45
2023/10/08 14:20:12;;;;;;;;;;;17.80;99.90;;;;;;5134181;27;19968;-44
2023/10/08 14:22:38;;;;;;;;;;;17.80;99.90;;;;;;5134471;27;19907;-45
2023/10/08 14:25:11;;;;;;;;;;;17.80;99.90;;;;;;5134282;27;19915;-47
2023/10/08 14:27:39;;;;;;;;;;;17.70;99.90;;;;;;5134394;27;20056;-44
2023/10/08 14:30:15;;;;;;;;;;;17.70;99.90;;;;;;5134190;27;20354;-45
2023/10/08 14:32:46;;;;;;;;;;;17.70;99.90;;;;;;5134359;27;19907;-42
2023/10/08 14:43:24;;;;;;;;;;;17.40;99.90;;;;;;5134511;27;20274;-46
2023/10/08 14:45:51;;;;;;;;;;;17.40;99.90;;;;;;5133964;27;19908;-45
2023/10/08 14:48:17;;;;;;;;;;;17.40;99.90;;;;;;5134047;27;19907;-44
2023/10/08 14:50:42;;;;;;;;;;;17.30;99.90;;;;;;5133916;27;19945;-45
2023/10/08 14:53:08;;;;;;;;;;;17.20;99.90;;;;;;5134039;27;19907;-46
2023/10/08 14:55:35;;;;;;;;;;;17.20;99.90;;;;;;5133902;27;20040;-44
2023/10/08 14:58:07;;;;;;;;;;;17.20;99.90;;;;;;5133198;27;20427;-45
2023/10/08 15:00:35;;;;;;;;;;;17.20;99.90;;;;;;5133872;27;19911;-44
2023/10/08 15:03:02;;;;;;;;;;;17.10;99.90;;;;;;5133783;28;19908;-46
2023/10/08 15:05:28;;;;;;;;;;;17.10;99.90;;;;;;5133846;28;19907;-44
2023/10/08 15:07:54;;;;;;;;;;;17.00;99.90;;;;;;5134000;28;20202;-46
2023/10/08 15:10:21;;;;;;;;;;;17.00;99.90;;;;;;5133892;28;19907;-46
2023/10/08 15:12:47;;;;;;;;;;;17.00;99.90;;;;;;5133892;28;19911;-46
2023/10/08 15:15:12;;;;;;;;;;;17.00;99.90;;;;;;5133593;28;20393;-47
2023/10/08 15:17:48;;;;;;;;;;;17.00;99.90;;;;;;5133664;28;20366;-46
2023/10/08 15:20:16;;;;;;;;;;;17.00;99.90;;;;;;5133879;28;19916;-44
2023/10/08 15:22:42;;;;;;;;;;;17.00;99.90;;;;;;5133506;28;19946;-45
2023/10/08 15:25:11;;;;;;;;;;;17.00;99.90;;;;;;5133637;28;19907;-46
2023/10/08 15:27:40;;;;;;;;;;;17.10;99.90;;;;;;5133457;28;20018;-46
2023/10/08 15:30:07;;;;;;;;;;;17.10;99.90;;;;;;5133430;28;19918;-44
2023/10/08 15:32:32;;;;;;;;;;;17.10;99.90;;;;;;5133547;28;19933;-43
2023/10/08 15:34:58;;;;;;;;;;;17.10;99.90;;;;;;5133486;28;19914;-47
2023/10/08 15:37:23;;;;;;;;;;;17.00;99.90;;;;;;5133353;28;19919;-45
2023/10/08 15:39:49;;;;;;;;;;;17.00;99.90;;;;;;5133270;28;20246;-44
2023/10/08 15:42:14;;;;;;;;;;;17.00;99.90;;;;;;5133469;28;19915;-46
2023/10/08 15:44:40;;;;;;;;;;;16.90;99.90;;;;;;5133361;28;19911;-44
2023/10/08 15:47:06;;;;;;;;;;;17.00;99.90;;;;;;5133406;28;19976;-45
2023/10/08 15:49:31;;;;;;;;;;;17.00;99.90;;;;;;5133440;28;19908;-45
2023/10/08 15:51:56;;;;;;;;;;;17.00;99.90;;;;;;5133326;28;19959;-45